This is the latest recevied weather packets stored in our database for station/object EA3HRE-10. If no packets are shown the sender has not sent any weather packets the latest 10 day(s).
| Time | Temp. | Humidity | Pressure | Rain* | Wind** | Luminosity | Snow |
|---|---|---|---|---|---|---|---|
| 1787905998 | 26.67° C | 44% | 1017.5 hPa | - | - | - | - |
| 1787882406 | 27.22° C | 34% | 1014.7 hPa | - | - | - | - |
| 1787881506 | 27.22° C | 35% | 1014.5 hPa | - | - | - | - |
| 1787880613 | 27.22° C | 38% | 1015 hPa | - | - | - | - |
| 1787880606 | 27.22° C | 38% | 1015 hPa | - | - | - | - |
| 1787879706 | 27.22° C | 43% | 1015 hPa | - | - | - | - |
| 1787878805 | 27.78° C | 44% | 1015.4 hPa | - | - | - | - |
| 1787877905 | 27.78° C | 45% | 1015.4 hPa | - | - | - | - |
| 1787877005 | 27.78° C | 45% | 1014.7 hPa | - | - | - | - |
| 1787876105 | 27.78° C | 50% | 1014.4 hPa | - | - | - | - |
| 1787875205 | 27.78° C | 48% | 1013.7 hPa | - | - | - | - |
| 1787874305 | 27.78° C | 48% | 1013.3 hPa | - | - | - | - |
| 1787873405 | 27.78° C | 47% | 1013.3 hPa | - | - | - | - |
| 1787872505 | 28.33° C | 47% | 1013.3 hPa | - | - | - | - |
| 1787871604 | 28.33° C | 52% | 1013.9 hPa | - | - | - | - |
| 1787870704 | 28.33° C | 56% | 1014 hPa | - | - | - | - |
| 1787869804 | 28.33° C | 57% | 1014.1 hPa | - | - | - | - |
| 1787868904 | 28.33° C | 56% | 1014.4 hPa | - | - | - | - |
| 1787868004 | 28.33° C | 55% | 1013.6 hPa | - | - | - | - |
| 1787867104 | 28.89° C | 56% | 1013.1 hPa | - | - | - | - |
| 1787866204 | 28.89° C | 56% | 1013.1 hPa | - | - | - | - |
| 1787865305 | 29.44° C | 56% | 1013.4 hPa | - | - | - | - |
| 1787864404 | 28.89° C | 56% | 1012.9 hPa | - | - | - | - |
| 1787863503 | 28.89° C | 56% | 1013.5 hPa | - | - | - | - |
| 1787862603 | 29.44° C | 55% | 1013.6 hPa | - | - | - | - |
* Rain since midnight (hover to see other rain measurements)
** Current wind speed in m/s (hover to see current wind gust speed)